Time;durP1;ratioP1;P1;durP2;ratioP2;P2;SDS_P1;SDS_P2;PMS_P1;PMS_P2;Temp;Humidity;BMP_temperature;BMP_pressure;BME280_temperature;BME280_humidity;BME280_pressure;Samples;Min_cycle;Max_cycle;Signal;HPM_P1;HPM_P2
2022/08/14 00:01:05;;;;;;;1.55;1.45;;;21.60;99.90;;;;;;6339697;22;20078;-80
2022/08/14 00:03:31;;;;;;;1.70;1.60;;;21.70;99.90;;;;;;6312109;22;20006;-80
2022/08/14 00:05:59;;;;;;;1.80;1.70;;;21.70;99.90;;;;;;6311554;22;20021;-80
2022/08/14 00:08:26;;;;;;;1.90;1.80;;;21.70;99.90;;;;;;6339575;22;20004;-80
2022/08/14 00:10:52;;;;;;;1.98;1.67;;;21.60;99.90;;;;;;6339431;22;20057;-80
2022/08/14 00:13:20;;;;;;;1.77;1.67;;;21.60;99.90;;;;;;6339214;22;19991;-80
2022/08/14 00:15:50;;;;;;;1.58;1.48;;;21.60;99.90;;;;;;6311781;22;20038;-80
2022/08/14 00:18:20;;;;;;;1.35;1.30;;;21.50;99.90;;;;;;6339565;22;20373;-79
2022/08/14 00:20:47;;;;;;;1.60;1.50;;;21.50;99.90;;;;;;6339231;22;20033;-80
2022/08/14 00:23:14;;;;;;;1.88;1.70;;;21.60;99.90;;;;;;6339401;22;20386;-80
2022/08/14 00:25:42;;;;;;;2.00;1.52;;;21.50;99.90;;;;;;6339438;22;20006;-80
2022/08/14 00:28:10;;;;;;;1.60;1.50;;;21.50;99.90;;;;;;6311909;22;20003;-80
2022/08/14 00:30:36;;;;;;;2.08;1.98;;;21.40;99.90;;;;;;6339196;22;20055;-80
2022/08/14 00:33:03;;;;;;;1.65;1.55;;;21.40;99.90;;;;;;6311796;22;20085;-80
2022/08/14 00:35:30;;;;;;;1.80;1.70;;;21.30;99.90;;;;;;6311686;22;20037;-80
2022/08/14 00:37:56;;;;;;;1.98;1.80;;;21.30;99.90;;;;;;6311804;22;20056;-80
2022/08/14 00:40:22;;;;;;;1.58;1.48;;;21.40;99.90;;;;;;6311696;22;20006;-80
2022/08/14 00:42:48;;;;;;;1.55;1.45;;;21.40;99.90;;;;;;6339426;22;20418;-80
2022/08/14 00:45:16;;;;;;;1.65;1.55;;;21.40;99.90;;;;;;6311534;22;20002;-80
2022/08/14 00:47:43;;;;;;;1.50;1.40;;;21.30;99.90;;;;;;6339367;22;20047;-79
2022/08/14 00:50:12;;;;;;;1.75;1.65;;;21.30;99.90;;;;;;6311470;22;20010;-80
2022/08/14 00:52:38;;;;;;;1.52;1.52;;;21.30;99.90;;;;;;6339102;22;19998;-80
2022/08/14 00:55:06;;;;;;;1.80;1.70;;;21.20;99.90;;;;;;6339372;22;20048;-80
2022/08/14 00:57:34;;;;;;;1.75;1.65;;;21.20;99.90;;;;;;6311548;22;20516;-80
2022/08/14 01:00:01;;;;;;;1.77;1.67;;;21.20;99.90;;;;;;6338985;22;20075;-80
2022/08/14 01:02:28;;;;;;;1.50;1.50;;;21.20;99.90;;;;;;6339189;22;20055;-79
2022/08/14 01:04:59;;;;;;;1.50;1.40;;;21.20;99.90;;;;;;6338848;22;20063;-80
2022/08/14 01:07:28;;;;;;;1.92;1.83;;;21.20;99.90;;;;;;6311544;22;20098;-80
2022/08/14 01:10:00;;;;;;;1.48;1.38;;;21.20;99.90;;;;;;6338757;22;20029;-80
2022/08/14 01:12:27;;;;;;;;;;;21.20;99.90;;;;;;6311778;22;20003;-80
2022/08/14 01:14:54;;;;;;;2.13;1.60;;;21.20;99.90;;;;;;6339040;22;19929;-80
2022/08/14 01:21:02;;;;;;;1.80;1.70;;;21.20;99.90;;;;;;6338861;22;19999;-80
2022/08/14 01:22:54;;;;;;;1.70;1.60;;;21.10;99.90;;;;;;6338899;22;20018;-80
2022/08/14 01:25:20;;;;;;;1.85;1.75;;;21.00;99.90;;;;;;6338531;22;20002;-80
2022/08/14 01:27:45;;;;;;;1.70;1.63;;;21.10;99.90;;;;;;6338999;22;19999;-80
2022/08/14 01:30:12;;;;;;;1.88;1.77;;;21.00;99.90;;;;;;6338583;22;19995;-79
2022/08/14 01:32:37;;;;;;;1.88;1.50;;;21.00;99.90;;;;;;6338944;22;20103;-80
2022/08/14 01:35:06;;;;;;;3.15;2.00;;;21.00;99.90;;;;;;6311149;22;20037;-80
2022/08/14 01:37:32;;;;;;;3.53;1.60;;;21.00;99.90;;;;;;6338782;22;20042;-79
2022/08/14 01:39:59;;;;;;;1.70;1.60;;;21.10;99.90;;;;;;6338791;22;20020;-79
2022/08/14 01:42:27;;;;;;;1.55;1.38;;;21.10;99.90;;;;;;6311035;22;20014;-80
2022/08/14 01:44:54;;;;;;;2.97;2.05;;;21.10;99.90;;;;;;6311149;22;20132;-80
2022/08/14 01:47:20;;;;;;;1.95;1.85;;;21.00;99.90;;;;;;6311037;22;20006;-80
2022/08/14 01:49:45;;;;;;;1.70;1.60;;;21.00;99.90;;;;;;6310597;22;19999;-80
2022/08/14 01:52:11;;;;;;;2.92;1.90;;;21.00;99.90;;;;;;6338795;22;20001;-80
2022/08/14 01:54:38;;;;;;;1.90;1.75;;;21.10;99.90;;;;;;6338803;22;20379;-80
2022/08/14 01:57:10;;;;;;;1.55;1.50;;;21.00;99.90;;;;;;6338518;22;20003;-80
2022/08/14 01:59:39;;;;;;;1.80;1.70;;;21.00;99.90;;;;;;6338869;22;20007;-79
2022/08/14 02:02:13;;;;;;;1.65;1.55;;;21.00;99.90;;;;;;6338640;22;19999;-80
2022/08/14 02:04:40;;;;;;;2.47;1.42;;;21.00;99.90;;;;;;6338790;22;20376;-80
2022/08/14 02:07:08;;;;;;;1.35;1.35;;;21.00;99.90;;;;;;6338495;22;20010;-80
2022/08/14 02:09:37;;;;;;;1.73;1.33;;;21.00;99.90;;;;;;6310726;22;20028;-80
2022/08/14 02:12:05;;;;;;;1.63;1.52;;;21.00;99.90;;;;;;6338760;22;20002;-80
2022/08/14 02:14:31;;;;;;;1.70;1.60;;;21.00;99.90;;;;;;6310811;22;20007;-80
2022/08/14 02:16:58;;;;;;;1.77;1.67;;;21.00;99.90;;;;;;6310868;22;20002;-79
2022/08/14 02:19:26;;;;;;;3.05;2.63;;;21.00;99.90;;;;;;6338585;22;20044;-78
2022/08/14 02:21:55;;;;;;;6.38;1.92;;;21.00;99.90;;;;;;6311000;22;20006;-80
2022/08/14 02:24:23;;;;;;;1.30;1.25;;;20.90;99.90;;;;;;6310349;22;20007;-79
2022/08/14 02:26:52;;;;;;;1.60;1.60;;;20.90;99.90;;;;;;6310854;22;20410;-80
2022/08/14 02:29:21;;;;;;;1.70;1.60;;;20.90;99.90;;;;;;6338540;22;20021;-80
2022/08/14 02:31:50;;;;;;;1.70;1.60;;;20.80;99.90;;;;;;6338443;22;20044;-80
2022/08/14 02:34:28;;;;;;;2.65;1.67;;;20.80;99.90;;;;;;6338630;22;20335;-80
2022/08/14 02:37:01;;;;;;;1.75;1.65;;;20.70;99.90;;;;;;6338408;22;20341;-80
2022/08/14 02:39:31;;;;;;;1.33;1.27;;;20.60;99.90;;;;;;6340460;22;20002;-80
2022/08/14 02:41:57;;;;;;;1.88;1.60;;;20.60;99.90;;;;;;6312901;22;20389;-80
2022/08/14 02:44:24;;;;;;;1.98;1.88;;;20.60;99.90;;;;;;6340356;22;20042;-79
2022/08/14 02:46:54;;;;;;;2.38;1.50;;;20.60;99.90;;;;;;6340465;22;20600;-80
2022/08/14 02:49:26;;;;;;;1.85;1.75;;;20.60;99.90;;;;;;6340260;22;19999;-80
2022/08/14 02:51:52;;;;;;;2.63;1.60;;;20.60;99.90;;;;;;6340194;22;19999;-80
2022/08/14 02:54:20;;;;;;;2.00;1.90;;;20.60;99.90;;;;;;6340300;22;19998;-80
2022/08/14 02:56:46;;;;;;;1.90;1.80;;;20.60;99.90;;;;;;6312658;22;20005;-79
2022/08/14 02:59:14;;;;;;;1.85;1.75;;;20.50;99.90;;;;;;6339856;22;19995;-80
2022/08/14 03:01:40;;;;;;;1.67;1.58;;;20.50;99.90;;;;;;6339747;22;20024;-80
2022/08/14 03:04:09;;;;;;;2.40;2.10;;;20.50;99.90;;;;;;6339677;22;19999;-80
2022/08/14 03:06:37;;;;;;;1.90;1.70;;;20.50;99.90;;;;;;6339882;22;20442;-80
2022/08/14 03:09:03;;;;;;;1.95;1.75;;;20.50;99.90;;;;;;6339962;22;20003;-80
2022/08/14 03:11:30;;;;;;;1.83;1.70;;;20.40;99.90;;;;;;6339940;22;20005;-80
2022/08/14 03:13:57;;;;;;;2.10;1.90;;;20.50;99.90;;;;;;6312063;22;20060;-80
2022/08/14 03:16:25;;;;;;;5.03;1.65;;;20.50;99.90;;;;;;6340082;22;20056;-80
2022/08/14 03:18:53;;;;;;;3.35;2.05;;;20.40;99.90;;;;;;6339971;22;20049;-80
2022/08/14 03:21:21;;;;;;;2.38;1.83;;;20.40;99.90;;;;;;6312556;22;20010;-80
2022/08/14 03:23:50;;;;;;;1.60;1.50;;;20.40;99.90;;;;;;6340084;22;20006;-80
2022/08/14 03:26:18;;;;;;;1.73;1.63;;;20.40;99.90;;;;;;6340018;22;20003;-80
2022/08/14 03:28:48;;;;;;;1.48;1.42;;;20.40;99.90;;;;;;6340028;22;20002;-80
2022/08/14 03:31:14;;;;;;;1.98;1.77;;;20.40;99.90;;;;;;6339983;22;20070;-80
2022/08/14 03:33:41;;;;;;;1.63;1.63;;;20.40;99.90;;;;;;6339813;22;20074;-80
2022/08/14 03:36:13;;;;;;;1.60;1.50;;;20.50;99.90;;;;;;6339780;22;20068;-80
2022/08/14 03:38:41;;;;;;;;;;;20.50;99.90;;;;;;6340412;22;20056;-80
2022/08/14 03:41:18;;;;;;;1.80;1.70;;;20.50;99.90;;;;;;6312125;22;19902;-80
2022/08/14 03:43:49;;;;;;;1.60;1.50;;;20.50;99.90;;;;;;6339561;22;19999;-80
2022/08/14 03:46:15;;;;;;;3.13;1.85;;;20.50;99.90;;;;;;6311838;22;20049;-80
2022/08/14 03:48:44;;;;;;;1.67;1.58;;;20.50;99.90;;;;;;6339406;22;19994;-81
2022/08/14 03:51:12;;;;;;;2.25;1.70;;;20.50;99.90;;;;;;6339454;22;20101;-81
2022/08/14 03:53:44;;;;;;;5.78;1.50;;;20.50;99.90;;;;;;6339703;22;20018;-80
2022/08/14 03:56:13;;;;;;;2.28;1.70;;;20.50;99.90;;;;;;6311946;22;20365;-80
2022/08/14 03:58:41;;;;;;;1.60;1.50;;;20.50;99.90;;;;;;6311375;22;20010;-80
2022/08/14 04:01:08;;;;;;;3.88;1.90;;;20.70;99.90;;;;;;6312094;22;20007;-80
2022/08/14 04:03:35;;;;;;;1.40;1.30;;;20.70;99.90;;;;;;6339550;22;19998;-80
2022/08/14 04:06:04;;;;;;;1.77;1.65;;;20.70;99.90;;;;;;6339192;22;20018;-80
2022/08/14 04:08:35;;;;;;;2.17;1.90;;;20.60;99.90;;;;;;6312035;22;19999;-80
2022/08/14 04:11:02;;;;;;;1.50;1.40;;;20.60;99.90;;;;;;6339681;22;19998;-80
2022/08/14 04:13:29;;;;;;;2.88;1.85;;;20.70;99.90;;;;;;6339669;22;19995;-80
2022/08/14 04:15:55;;;;;;;1.70;1.60;;;20.60;99.90;;;;;;6339657;22;20119;-80
2022/08/14 04:18:20;;;;;;;1.60;1.50;;;20.60;99.90;;;;;;6339542;22;19999;-80
2022/08/14 04:20:46;;;;;;;1.90;1.80;;;20.60;99.90;;;;;;6339493;22;19998;-80
2022/08/14 04:23:12;;;;;;;1.88;1.77;;;20.60;99.90;;;;;;6311973;22;20128;-80
2022/08/14 04:25:39;;;;;;;1.70;1.60;;;20.70;99.90;;;;;;6339314;22;20113;-80
2022/08/14 04:28:05;;;;;;;1.67;1.58;;;20.70;99.90;;;;;;6311688;22;19999;-80
2022/08/14 04:30:40;;;;;;;1.90;1.80;;;20.70;99.90;;;;;;6339423;22;20060;-80
2022/08/14 04:33:07;;;;;;;1.90;1.80;;;20.70;99.90;;;;;;6311334;22;20003;-81
2022/08/14 04:35:34;;;;;;;1.83;1.70;;;20.70;99.90;;;;;;6309577;22;20056;-80
2022/08/14 04:43:35;;;;;;;1.60;1.50;;;20.80;99.90;;;;;;6339447;22;20424;-80
2022/08/14 04:46:02;;;;;;;1.70;1.60;;;20.80;99.90;;;;;;6339118;22;20144;-80
2022/08/14 04:48:28;;;;;;;1.88;1.77;;;20.80;99.90;;;;;;6339166;22;20056;-80
2022/08/14 04:50:55;;;;;;;2.70;1.73;;;20.80;99.90;;;;;;6311072;22;20003;-80
2022/08/14 04:53:27;;;;;;;1.65;1.52;;;20.80;99.90;;;;;;6311572;22;20003;-80
2022/08/14 04:55:54;;;;;;;2.75;1.95;;;20.80;99.90;;;;;;6339397;22;20003;-80
2022/08/14 04:58:28;;;;;;;1.70;1.60;;;20.80;99.90;;;;;;6311367;22;20033;-80
2022/08/14 05:00:55;;;;;;;2.42;2.00;;;20.80;99.90;;;;;;6338588;22;19999;-80
2022/08/14 05:03:24;;;;;;;1.58;1.58;;;20.80;99.90;;;;;;6338739;22;20009;-80
2022/08/14 05:05:51;;;;;;;1.90;1.80;;;20.90;99.90;;;;;;6310871;22;20010;-80
2022/08/14 05:08:18;;;;;;;1.80;1.70;;;20.90;99.90;;;;;;6338906;22;20048;-80
2022/08/14 05:10:57;;;;;;;1.55;1.50;;;20.90;99.90;;;;;;6338404;22;20002;-80
2022/08/14 05:13:25;;;;;;;1.65;1.55;;;21.00;99.90;;;;;;6311251;22;20098;-80
2022/08/14 05:15:53;;;;;;;1.50;1.45;;;21.00;99.90;;;;;;6339254;22;20317;-80
2022/08/14 05:18:23;;;;;;;1.60;1.50;;;21.00;99.90;;;;;;6311467;22;20002;-80
2022/08/14 05:20:52;;;;;;;1.90;1.80;;;21.10;99.90;;;;;;6338658;22;20002;-80
2022/08/14 05:23:23;;;;;;;1.88;1.77;;;21.10;99.90;;;;;;6339202;22;20002;-80
2022/08/14 05:25:53;;;;;;;1.70;1.60;;;21.10;99.90;;;;;;6338826;22;20451;-80
2022/08/14 05:28:22;;;;;;;1.67;1.55;;;21.10;99.90;;;;;;6310797;22;20052;-80
2022/08/14 05:30:54;;;;;;;2.03;1.77;;;21.20;99.90;;;;;;6338867;22;20005;-80
2022/08/14 05:33:23;;;;;;;2.78;1.60;;;21.20;99.90;;;;;;6311083;22;20491;-80
2022/08/14 05:35:50;;;;;;;1.75;1.65;;;21.30;99.90;;;;;;6310803;22;20436;-79
2022/08/14 05:38:19;;;;;;;4.47;1.75;;;21.40;99.90;;;;;;6338795;22;20010;-81
2022/08/14 05:40:46;;;;;;;1.80;1.70;;;21.40;99.90;;;;;;6338993;22;20082;-80
2022/08/14 05:43:13;;;;;;;2.00;1.90;;;21.40;99.90;;;;;;6311103;22;20007;-80
2022/08/14 05:45:39;;;;;;;1.80;1.50;;;21.50;99.90;;;;;;6338632;22;20048;-80
2022/08/14 05:48:06;;;;;;;2.03;1.90;;;21.50;99.90;;;;;;6338711;22;20048;-80
2022/08/14 05:50:33;;;;;;;1.60;1.50;;;21.50;99.90;;;;;;6338690;22;20069;-80
2022/08/14 05:53:00;;;;;;;1.73;1.63;;;21.50;99.90;;;;;;6338869;22;20330;-80
2022/08/14 05:55:29;;;;;;;1.90;1.80;;;21.50;99.90;;;;;;6338849;22;20003;-80
2022/08/14 05:57:59;;;;;;;2.10;1.80;;;21.60;99.90;;;;;;6338574;22;20416;-80
2022/08/14 06:00:32;;;;;;;2.03;1.92;;;21.60;99.90;;;;;;6338528;22;20003;-80
2022/08/14 06:02:59;;;;;;;1.65;1.55;;;21.60;99.90;;;;;;6310262;22;20014;-80
2022/08/14 06:05:26;;;;;;;1.90;1.80;;;21.60;99.90;;;;;;6310813;22;20034;-80
2022/08/14 06:07:51;;;;;;;1.80;1.70;;;21.60;99.90;;;;;;6338328;22;20002;-80
2022/08/14 06:10:17;;;;;;;1.80;1.70;;;21.60;99.90;;;;;;6338437;22;19995;-80
2022/08/14 06:12:44;;;;;;;1.77;1.67;;;21.60;99.90;;;;;;6338584;22;20006;-80
2022/08/14 06:15:13;;;;;;;1.70;1.60;;;21.60;99.90;;;;;;6338678;22;20461;-80
2022/08/14 06:17:58;;;;;;;2.28;1.95;;;21.70;99.90;;;;;;6338644;22;20003;-79
2022/08/14 06:20:24;;;;;;;2.15;2.05;;;21.70;99.90;;;;;;6310857;22;20085;-80
2022/08/14 06:22:50;;;;;;;1.70;1.38;;;21.80;99.90;;;;;;6338465;22;20052;-80
2022/08/14 06:25:16;;;;;;;4.82;2.10;;;21.90;99.90;;;;;;6310313;22;20101;-80
2022/08/14 06:27:45;;;;;;;1.80;1.70;;;22.00;99.90;;;;;;6338652;22;20031;-80
2022/08/14 06:30:19;;;;;;;2.17;1.98;;;22.20;99.90;;;;;;6338548;22;20015;-80
2022/08/14 06:32:46;;;;;;;1.83;1.73;;;22.30;99.90;;;;;;6338586;22;19999;-80
2022/08/14 06:35:30;;;;;;;3.38;1.58;;;22.40;99.90;;;;;;6338647;22;20002;-80
2022/08/14 06:37:59;;;;;;;3.95;1.52;;;22.50;99.90;;;;;;6338537;22;20100;-80
2022/08/14 06:40:30;;;;;;;1.70;1.60;;;22.50;99.90;;;;;;6310733;22;20330;-80
2022/08/14 06:42:59;;;;;;;2.25;1.65;;;22.50;99.90;;;;;;6338581;22;20033;-80
2022/08/14 06:45:24;;;;;;;3.00;1.52;;;22.60;99.90;;;;;;6338343;22;20318;-80
2022/08/14 06:47:50;;;;;;;1.85;1.75;;;22.70;99.90;;;;;;6338512;22;19995;-80
2022/08/14 06:50:18;;;;;;;4.13;1.80;;;22.80;99.90;;;;;;6338285;22;19999;-80
2022/08/14 06:52:44;;;;;;;1.80;1.70;;;22.80;99.90;;;;;;6338533;22;20427;-81
2022/08/14 06:55:12;;;;;;;2.67;1.40;;;22.90;99.90;;;;;;6310260;22;20030;-80
2022/08/14 06:57:40;;;;;;;1.50;1.40;;;23.00;99.90;;;;;;6338429;22;20374;-80
2022/08/14 07:00:12;;;;;;;4.10;2.10;;;23.00;99.80;;;;;;6310757;22;20030;-80
2022/08/14 07:08:13;;;;;;;2.60;1.83;;;23.20;99.70;;;;;;6338512;22;20037;-80
2022/08/14 07:10:39;;;;;;;2.58;2.08;;;23.30;99.90;;;;;;6309874;22;20002;-80
2022/08/14 07:13:05;;;;;;;3.95;1.70;;;23.30;99.90;;;;;;6338314;22;20370;-80
2022/08/14 07:15:32;;;;;;;1.90;1.52;;;23.30;99.60;;;;;;6338178;22;20010;-80
2022/08/14 07:17:58;;;;;;;2.17;1.70;;;23.30;99.90;;;;;;6310388;22;20002;-80
2022/08/14 07:20:27;;;;;;;1.63;1.52;;;23.30;99.30;;;;;;6337963;22;20003;-80
2022/08/14 07:22:57;;;;;;;1.90;1.80;;;23.40;99.20;;;;;;6310007;22;20018;-80
2022/08/14 07:25:26;;;;;;;1.65;1.33;;;23.40;99.20;;;;;;6339569;22;20372;-80
2022/08/14 07:27:53;;;;;;;1.95;1.85;;;23.50;99.50;;;;;;6339527;22;20074;-81
2022/08/14 07:30:19;;;;;;;1.50;1.40;;;23.60;99.30;;;;;;6339342;22;20052;-81
2022/08/14 07:32:45;;;;;;;2.00;1.90;;;23.70;97.80;;;;;;6311762;22;19998;-80
2022/08/14 07:35:11;;;;;;;3.28;1.60;;;23.80;96.40;;;;;;6338147;22;19999;-80
2022/08/14 07:37:37;;;;;;;1.65;1.52;;;23.90;96.50;;;;;;6310082;22;20013;-81
2022/08/14 07:40:04;;;;;;;1.52;1.42;;;24.00;98.30;;;;;;6338143;22;20073;-77
2022/08/14 07:42:31;;;;;;;2.80;1.90;;;24.10;98.40;;;;;;6338854;22;20010;-77
2022/08/14 07:44:59;;;;;;;1.75;1.65;;;24.10;99.20;;;;;;6310757;22;20120;-77
2022/08/14 07:47:25;;;;;;;1.80;1.70;;;24.20;99.90;;;;;;6338606;22;19999;-77
2022/08/14 07:50:10;;;;;;;1.73;1.63;;;24.30;99.90;;;;;;6311764;22;19999;-77
2022/08/14 07:52:37;;;;;;;6.28;2.15;;;24.20;99.90;;;;;;6339006;22;19995;-77
2022/08/14 07:55:04;;;;;;;1.80;1.70;;;24.20;99.90;;;;;;6339109;22;20003;-77
2022/08/14 07:57:30;;;;;;;3.85;1.70;;;24.40;99.70;;;;;;6338976;22;20432;-77
2022/08/14 07:59:56;;;;;;;4.00;1.70;;;24.40;99.70;;;;;;6338692;22;20007;-77
2022/08/14 08:02:22;;;;;;;2.15;1.98;;;24.40;99.50;;;;;;6338848;22;19999;-77
2022/08/14 08:04:54;;;;;;;2.53;1.45;;;24.40;98.70;;;;;;6337801;22;20006;-74
2022/08/14 08:07:22;;;;;;;1.73;1.70;;;24.40;98.40;;;;;;6311500;22;20007;-77
2022/08/14 08:09:52;;;;;;;1.80;1.70;;;24.60;97.60;;;;;;6311041;22;20003;-77
2022/08/14 08:12:19;;;;;;;1.90;1.80;;;24.60;96.60;;;;;;6310582;22;20005;-74
2022/08/14 08:14:47;;;;;;;1.65;1.55;;;24.60;96.40;;;;;;6338840;22;20077;-74
2022/08/14 08:17:14;;;;;;;1.88;1.70;;;24.60;96.50;;;;;;6339354;22;20007;-76
2022/08/14 08:19:40;;;;;;;1.83;1.73;;;24.60;96.70;;;;;;6338543;22;20294;-77
2022/08/14 08:22:05;;;;;;;2.00;1.90;;;24.60;96.60;;;;;;6337639;22;20458;-77
2022/08/14 08:24:33;;;;;;;2.05;1.90;;;24.60;96.80;;;;;;6336663;22;20006;-77
2022/08/14 08:27:02;;;;;;;1.50;1.40;;;24.70;97.00;;;;;;6309387;22;20026;-77
2022/08/14 08:29:27;;;;;;;1.60;1.50;;;24.80;96.30;;;;;;6336938;22;19999;-76
2022/08/14 08:31:53;;;;;;;1.83;1.67;;;24.80;96.00;;;;;;6308884;22;20128;-76
2022/08/14 08:34:20;;;;;;;1.70;1.60;;;24.80;94.90;;;;;;6308496;22;20005;-77
2022/08/14 08:36:46;;;;;;;3.17;1.90;;;24.90;95.50;;;;;;6311324;22;20033;-76
2022/08/14 08:39:12;;;;;;;3.25;1.67;;;24.90;94.70;;;;;;6310981;22;19999;-76
2022/08/14 08:41:41;;;;;;;2.70;1.67;;;24.80;94.20;;;;;;6310989;22;20452;-76
2022/08/14 08:44:07;;;;;;;1.70;1.60;;;24.90;93.20;;;;;;6338719;22;19999;-76
2022/08/14 08:46:33;;;;;;;1.65;1.55;;;24.90;94.10;;;;;;6309765;22;20006;-76
2022/08/14 08:48:59;;;;;;;1.73;1.58;;;24.90;94.80;;;;;;6309745;22;20003;-76
2022/08/14 08:51:32;;;;;;;1.60;1.50;;;25.00;93.60;;;;;;6338748;22;20078;-76
2022/08/14 08:54:03;;;;;;;1.20;1.20;;;25.10;91.70;;;;;;6339444;22;20129;-76
2022/08/14 08:56:49;;;;;;;1.45;1.35;;;25.30;90.40;;;;;;6339183;22;20025;-76
2022/08/14 08:59:23;;;;;;;1.60;1.30;;;25.30;88.10;;;;;;6311433;22;20003;-76
2022/08/14 09:01:56;;;;;;;1.20;1.20;;;25.30;88.40;;;;;;6339467;22;20005;-80
2022/08/14 09:04:22;;;;;;;1.63;1.40;;;25.40;88.20;;;;;;6338153;22;20317;-81
2022/08/14 09:06:49;;;;;;;3.85;1.40;;;25.50;87.80;;;;;;6337763;22;20092;-80
2022/08/14 09:09:20;;;;;;;1.30;1.27;;;25.50;87.60;;;;;;6309927;22;19999;-80
2022/08/14 09:11:46;;;;;;;1.42;1.42;;;25.60;87.50;;;;;;6338594;22;19999;-81
2022/08/14 09:14:12;;;;;;;1.50;1.40;;;25.80;85.10;;;;;;6337888;22;20071;-81
2022/08/14 09:16:38;;;;;;;1.40;1.30;;;25.80;84.60;;;;;;6307621;22;20058;-80
2022/08/14 09:19:04;;;;;;;1.48;1.38;;;25.90;82.00;;;;;;6334699;22;20003;-76
2022/08/14 09:21:30;;;;;;;1.70;1.40;;;25.80;82.20;;;;;;6307076;22;20582;-76
2022/08/14 09:23:56;;;;;;;2.17;1.20;;;25.90;81.70;;;;;;6335896;22;20007;-76
2022/08/14 09:26:22;;;;;;;1.58;1.50;;;25.90;80.00;;;;;;6308020;22;20508;-77
2022/08/14 09:28:48;;;;;;;3.38;1.50;;;25.90;79.60;;;;;;6308213;22;20581;-76
2022/08/14 09:31:15;;;;;;;1.83;1.45;;;25.90;81.10;;;;;;6336026;22;19999;-76
2022/08/14 09:33:58;;;;;;;1.35;1.20;;;26.00;79.40;;;;;;6336781;22;19995;-77
2022/08/14 09:36:46;;;;;;;1.98;1.30;;;26.00;78.00;;;;;;6336330;22;20009;-76
2022/08/14 09:39:30;;;;;;;1.75;1.65;;;26.10;79.70;;;;;;6336106;22;20623;-76
2022/08/14 09:42:37;;;;;;;1.40;1.30;;;26.10;79.70;;;;;;6335117;22;19999;-76
2022/08/14 09:45:16;;;;;;;1.27;1.23;;;26.20;76.80;;;;;;6309501;22;20002;-76
2022/08/14 09:47:43;;;;;;;1.25;1.20;;;26.30;79.90;;;;;;6336893;22;19995;-77
2022/08/14 09:50:28;;;;;;;1.30;1.20;;;26.30;80.70;;;;;;6310392;22;20003;-76
2022/08/14 09:53:02;;;;;;;1.33;1.30;;;26.40;78.40;;;;;;6310588;22;20006;-76
2022/08/14 09:55:32;;;;;;;1.40;1.30;;;26.40;80.10;;;;;;6338339;22;20003;-77
2022/08/14 09:58:13;;;;;;;2.17;1.30;;;26.50;79.80;;;;;;6337615;22;20006;-76
2022/08/14 10:00:53;;;;;;;1.58;1.48;;;26.70;77.30;;;;;;6309103;22;20014;-77
2022/08/14 10:03:32;;;;;;;1.38;1.30;;;26.70;75.80;;;;;;6337043;22;19999;-81
2022/08/14 10:06:17;;;;;;;2.25;1.55;;;26.80;77.50;;;;;;6338303;22;20010;-80
2022/08/14 10:08:54;;;;;;;1.35;1.25;;;26.90;71.40;;;;;;6338544;22;19998;-80
2022/08/14 10:11:28;;;;;;;1.63;1.20;;;26.80;71.40;;;;;;6310905;22;20003;-80
2022/08/14 10:13:57;;;;;;;1.25;1.25;;;26.80;71.80;;;;;;6338629;22;20418;-80
2022/08/14 10:16:28;;;;;;;1.50;1.40;;;26.80;72.10;;;;;;6309803;22;20056;-80
2022/08/14 10:19:05;;;;;;;1.35;1.27;;;26.80;72.40;;;;;;6337617;22;20430;-80
2022/08/14 10:21:31;;;;;;;1.70;1.60;;;26.80;73.90;;;;;;6337414;22;20056;-80
2022/08/14 10:23:57;;;;;;;3.92;1.65;;;26.90;73.40;;;;;;6337614;22;20044;-81
2022/08/14 10:26:24;;;;;;;1.38;1.27;;;27.00;73.10;;;;;;6338323;22;20021;-81
2022/08/14 10:28:52;;;;;;;1.20;1.13;;;27.10;68.80;;;;;;6337829;22;20001;-81
2022/08/14 10:31:28;;;;;;;1.50;1.40;;;27.10;69.60;;;;;;6337826;22;20070;-81
2022/08/14 10:34:12;;;;;;;1.42;1.30;;;27.20;69.30;;;;;;6309991;22;20064;-81
2022/08/14 10:36:43;;;;;;;1.38;1.35;;;27.20;68.20;;;;;;6337731;22;20003;-81
2022/08/14 10:39:24;;;;;;;1.65;1.55;;;27.20;68.20;;;;;;6310610;22;20007;-81
2022/08/14 10:42:10;;;;;;;1.25;1.23;;;27.20;69.30;;;;;;6338661;22;19999;-80
2022/08/14 10:44:48;;;;;;;1.45;1.35;;;27.30;71.90;;;;;;6338806;22;20025;-81
2022/08/14 10:47:16;;;;;;;1.55;1.45;;;27.60;69.00;;;;;;6338715;22;19995;-81
2022/08/14 10:49:59;;;;;;;1.42;1.33;;;27.80;68.50;;;;;;6338545;22;19991;-81
2022/08/14 10:52:34;;;;;;;1.33;1.33;;;27.90;70.00;;;;;;6310509;22;20482;-81
2022/08/14 10:55:12;;;;;;;1.17;1.17;;;27.80;70.20;;;;;;6338458;22;20366;-81
2022/08/14 10:57:56;;;;;;;1.52;1.42;;;28.00;69.20;;;;;;6338472;22;19998;-81
2022/08/14 11:00:25;;;;;;;1.88;1.77;;;28.00;68.50;;;;;;6340321;22;20003;-81
2022/08/14 11:03:12;;;;;;;1.55;1.42;;;28.00;69.30;;;;;;6312524;22;20006;-81
2022/08/14 11:05:44;;;;;;;1.52;1.40;;;28.10;68.10;;;;;;6339975;22;20017;-81
2022/08/14 11:08:14;;;;;;;1.42;1.42;;;28.20;69.30;;;;;;6340047;22;20002;-81
2022/08/14 11:10:47;;;;;;;1.40;1.40;;;28.30;70.00;;;;;;6339496;22;19999;-81
2022/08/14 11:13:20;;;;;;;1.25;1.25;;;28.40;68.50;;;;;;6311595;22;20003;-80
2022/08/14 11:15:47;;;;;;;1.25;1.23;;;28.30;69.90;;;;;;6338816;22;20045;-81
2022/08/14 11:18:14;;;;;;;1.60;1.50;;;28.40;70.90;;;;;;6338988;22;20003;-81
2022/08/14 11:20:49;;;;;;;1.10;1.10;;;28.50;72.10;;;;;;6338672;22;19994;-81
2022/08/14 11:23:17;;;;;;;1.25;1.25;;;28.50;69.90;;;;;;6338822;22;20442;-81
2022/08/14 11:25:48;;;;;;;1.45;1.38;;;28.50;65.50;;;;;;6338616;22;19999;-81
2022/08/14 11:28:15;;;;;;;1.63;1.53;;;28.40;64.70;;;;;;6339217;22;20461;-81
2022/08/14 11:30:45;;;;;;;1.40;1.30;;;28.40;65.80;;;;;;6312347;22;20055;-81
2022/08/14 11:33:11;;;;;;;1.38;1.27;;;28.40;70.20;;;;;;6340133;22;20330;-81
2022/08/14 11:35:37;;;;;;;1.55;1.45;;;28.50;72.00;;;;;;6339868;22;20492;-81
2022/08/14 11:38:05;;;;;;;1.25;1.25;;;28.70;71.00;;;;;;6339927;22;20073;-81
2022/08/14 11:40:36;;;;;;;1.30;1.30;;;28.90;71.10;;;;;;6339927;22;20006;-81
2022/08/14 11:43:04;;;;;;;1.25;1.25;;;29.00;68.20;;;;;;6339937;22;19999;-81
2022/08/14 11:45:33;;;;;;;1.67;1.48;;;29.20;68.00;;;;;;6339760;22;20052;-80
2022/08/14 11:48:13;;;;;;;1.45;1.40;;;29.10;66.60;;;;;;6339692;22;20052;-81
2022/08/14 11:50:39;;;;;;;1.45;1.35;;;29.20;65.00;;;;;;6339471;22;19995;-80
2022/08/14 11:53:18;;;;;;;1.52;1.48;;;29.20;67.60;;;;;;6339770;22;20030;-81
2022/08/14 11:55:44;;;;;;;1.30;1.30;;;29.30;65.80;;;;;;6339761;22;19999;-81
2022/08/14 11:58:11;;;;;;;1.83;1.40;;;29.30;68.50;;;;;;6339651;22;20072;-81
2022/08/14 12:00:52;;;;;;;5.82;1.30;;;29.50;67.90;;;;;;6311948;22;20010;-80
2022/08/14 12:03:18;;;;;;;1.38;1.38;;;29.60;64.20;;;;;;6339484;22;20003;-81
2022/08/14 12:05:45;;;;;;;1.60;1.42;;;29.70;65.30;;;;;;6339523;22;20506;-81
2022/08/14 12:08:11;;;;;;;1.25;1.25;;;29.70;64.80;;;;;;6339697;22;20044;-81
2022/08/14 12:10:39;;;;;;;2.17;1.17;;;29.70;64.30;;;;;;6339559;22;19999;-81
2022/08/14 12:13:16;;;;;;;1.55;1.52;;;29.70;66.40;;;;;;6339648;22;20071;-81
2022/08/14 12:15:43;;;;;;;1.30;1.30;;;29.70;59.80;;;;;;6339552;22;20434;-81
2022/08/14 12:18:10;;;;;;;1.33;1.30;;;29.70;59.00;;;;;;6339598;22;20077;-81
2022/08/14 12:20:41;;;;;;;1.23;1.23;;;29.70;62.80;;;;;;6339619;22;20041;-81
2022/08/14 12:23:21;;;;;;;3.55;1.40;;;29.70;60.30;;;;;;6311984;22;20011;-80
2022/08/14 12:25:47;;;;;;;1.02;1.02;;;29.70;60.20;;;;;;6339400;22;20002;-81
2022/08/14 12:28:14;;;;;;;2.47;1.35;;;29.80;61.10;;;;;;6311526;22;20010;-81
2022/08/14 12:30:42;;;;;;;1.50;1.35;;;29.90;60.20;;;;;;6311973;22;20372;-81
2022/08/14 12:33:25;;;;;;;1.50;1.40;;;29.90;60.40;;;;;;6339508;22;20002;-80
2022/08/14 12:35:53;;;;;;;1.45;1.35;;;30.10;59.60;;;;;;6339353;22;19998;-81
2022/08/14 12:38:29;;;;;;;4.45;1.75;;;30.20;58.80;;;;;;6339300;22;20351;-81
2022/08/14 12:40:55;;;;;;;1.00;1.00;;;30.20;59.10;;;;;;6339373;22;19998;-81
2022/08/14 12:43:21;;;;;;;1.70;1.60;;;30.20;57.50;;;;;;6339236;22;20048;-81
2022/08/14 12:45:53;;;;;;;1.58;1.58;;;30.30;59.40;;;;;;6339340;22;20003;-81
2022/08/14 12:48:21;;;;;;;1.20;1.20;;;30.30;59.80;;;;;;6311720;22;20003;-81
2022/08/14 12:50:50;;;;;;;1.40;1.40;;;30.50;62.50;;;;;;6311698;22;20340;-81
2022/08/14 12:53:16;;;;;;;1.33;1.23;;;30.60;59.60;;;;;;6339271;22;20071;-82
2022/08/14 12:55:43;;;;;;;1.13;1.13;;;30.60;57.30;;;;;;6339249;22;20430;-81
2022/08/14 12:58:10;;;;;;;1.45;1.35;;;30.70;58.10;;;;;;6338997;22;19999;-81
2022/08/14 13:00:49;;;;;;;2.42;1.20;;;30.80;59.40;;;;;;6311495;22;20316;-81
2022/08/14 13:03:26;;;;;;;2.13;1.10;;;30.90;59.70;;;;;;6311697;22;20368;-81
2022/08/14 13:05:53;;;;;;;1.23;1.20;;;31.00;59.40;;;;;;6338734;22;20319;-82
2022/08/14 13:08:21;;;;;;;1.30;1.20;;;31.00;56.70;;;;;;6339064;22;20442;-81
2022/08/14 13:10:48;;;;;;;1.52;1.40;;;31.00;56.80;;;;;;6339089;22;20006;-81
2022/08/14 13:13:19;;;;;;;2.67;1.35;;;31.10;58.00;;;;;;6339109;22;20434;-82